sensor_id;sensor_type;location;lat;lon;timestamp;temperature;humidity
7814;DHT22;3952;48.364;16.022;2023-05-31T00:01:38;12.50;99.90
7814;DHT22;3952;48.364;16.022;2023-05-31T00:04:06;12.40;99.90
7814;DHT22;3952;48.364;16.022;2023-05-31T00:06:33;12.40;99.90
7814;DHT22;3952;48.364;16.022;2023-05-31T00:09:01;12.40;99.90
7814;DHT22;3952;48.364;16.022;2023-05-31T00:11:29;12.40;99.90
7814;DHT22;3952;48.364;16.022;2023-05-31T00:13:56;12.40;99.90
7814;DHT22;3952;48.364;16.022;2023-05-31T00:16:23;12.40;99.90
7814;DHT22;3952;48.364;16.022;2023-05-31T00:18:50;12.40;99.90
7814;DHT22;3952;48.364;16.022;2023-05-31T00:21:19;12.40;99.90
7814;DHT22;3952;48.364;16.022;2023-05-31T00:23:46;12.40;99.90
7814;DHT22;3952;48.364;16.022;2023-05-31T00:26:14;12.40;99.90
7814;DHT22;3952;48.364;16.022;2023-05-31T00:28:41;12.40;99.90
7814;DHT22;3952;48.364;16.022;2023-05-31T00:31:08;12.40;99.90
7814;DHT22;3952;48.364;16.022;2023-05-31T00:33:36;12.40;99.90
7814;DHT22;3952;48.364;16.022;2023-05-31T00:36:04;12.30;99.90
7814;DHT22;3952;48.364;16.022;2023-05-31T00:38:32;12.20;99.90
7814;DHT22;3952;48.364;16.022;2023-05-31T00:41:00;12.20;99.90
7814;DHT22;3952;48.364;16.022;2023-05-31T00:43:27;12.20;99.90
7814;DHT22;3952;48.364;16.022;2023-05-31T00:45:54;12.10;99.90
7814;DHT22;3952;48.364;16.022;2023-05-31T00:48:22;12.10;99.90
7814;DHT22;3952;48.364;16.022;2023-05-31T00:50:49;12.10;99.90
7814;DHT22;3952;48.364;16.022;2023-05-31T00:53:17;12.00;99.90
7814;DHT22;3952;48.364;16.022;2023-05-31T00:55:47;12.00;99.90
7814;DHT22;3952;48.364;16.022;2023-05-31T00:58:15;12.00;99.90
7814;DHT22;3952;48.364;16.022;2023-05-31T01:00:43;12.00;99.90
7814;DHT22;3952;48.364;16.022;2023-05-31T01:03:11;12.00;99.90
7814;DHT22;3952;48.364;16.022;2023-05-31T01:05:39;12.00;99.90
7814;DHT22;3952;48.364;16.022;2023-05-31T01:08:07;11.90;99.90
7814;DHT22;3952;48.364;16.022;2023-05-31T01:10:34;11.90;99.90
7814;DHT22;3952;48.364;16.022;2023-05-31T01:13:08;11.80;99.90
7814;DHT22;3952;48.364;16.022;2023-05-31T01:15:45;11.80;99.90
7814;DHT22;3952;48.364;16.022;2023-05-31T01:18:18;11.70;99.90
7814;DHT22;3952;48.364;16.022;2023-05-31T01:20:51;11.70;99.90
7814;DHT22;3952;48.364;16.022;2023-05-31T01:23:34;11.70;99.90
7814;DHT22;3952;48.364;16.022;2023-05-31T01:26:29;11.70;99.90
7814;DHT22;3952;48.364;16.022;2023-05-31T01:29:01;11.60;99.90
7814;DHT22;3952;48.364;16.022;2023-05-31T01:31:33;11.60;99.90
7814;DHT22;3952;48.364;16.022;2023-05-31T01:34:01;11.60;99.90
7814;DHT22;3952;48.364;16.022;2023-05-31T01:36:29;11.60;99.90
7814;DHT22;3952;48.364;16.022;2023-05-31T01:38:56;11.60;99.90
7814;DHT22;3952;48.364;16.022;2023-05-31T01:41:26;11.60;99.90
7814;DHT22;3952;48.364;16.022;2023-05-31T01:43:55;11.60;99.90
7814;DHT22;3952;48.364;16.022;2023-05-31T01:46:23;11.60;99.90
7814;DHT22;3952;48.364;16.022;2023-05-31T01:48:52;11.60;99.90
7814;DHT22;3952;48.364;16.022;2023-05-31T01:51:20;11.50;99.90
7814;DHT22;3952;48.364;16.022;2023-05-31T01:53:47;11.50;99.90
7814;DHT22;3952;48.364;16.022;2023-05-31T01:56:15;11.40;99.90
7814;DHT22;3952;48.364;16.022;2023-05-31T01:58:44;11.40;99.90
7814;DHT22;3952;48.364;16.022;2023-05-31T02:01:15;11.40;99.90
7814;DHT22;3952;48.364;16.022;2023-05-31T02:03:43;11.40;99.90
7814;DHT22;3952;48.364;16.022;2023-05-31T02:06:10;11.40;99.90
7814;DHT22;3952;48.364;16.022;2023-05-31T02:08:38;11.40;99.90
7814;DHT22;3952;48.364;16.022;2023-05-31T02:11:06;11.40;99.90
7814;DHT22;3952;48.364;16.022;2023-05-31T02:13:33;11.30;99.90
7814;DHT22;3952;48.364;16.022;2023-05-31T02:16:02;11.40;99.90
7814;DHT22;3952;48.364;16.022;2023-05-31T02:18:30;11.30;99.90
7814;DHT22;3952;48.364;16.022;2023-05-31T02:20:58;11.30;99.90
7814;DHT22;3952;48.364;16.022;2023-05-31T02:23:25;11.30;99.90
7814;DHT22;3952;48.364;16.022;2023-05-31T02:25:52;11.30;99.90
7814;DHT22;3952;48.364;16.022;2023-05-31T02:28:20;11.30;99.90
7814;DHT22;3952;48.364;16.022;2023-05-31T02:30:55;11.30;99.90
7814;DHT22;3952;48.364;16.022;2023-05-31T02:33:24;11.30;99.90
7814;DHT22;3952;48.364;16.022;2023-05-31T02:35:51;11.30;99.90
7814;DHT22;3952;48.364;16.022;2023-05-31T02:38:19;11.20;99.90
7814;DHT22;3952;48.364;16.022;2023-05-31T02:40:47;11.20;99.90
7814;DHT22;3952;48.364;16.022;2023-05-31T02:43:14;11.20;99.90
7814;DHT22;3952;48.364;16.022;2023-05-31T02:45:41;11.10;99.90
7814;DHT22;3952;48.364;16.022;2023-05-31T02:48:08;11.10;99.90
7814;DHT22;3952;48.364;16.022;2023-05-31T02:50:37;11.00;99.90
7814;DHT22;3952;48.364;16.022;2023-05-31T02:53:04;11.00;99.90
7814;DHT22;3952;48.364;16.022;2023-05-31T02:55:31;11.00;99.90
7814;DHT22;3952;48.364;16.022;2023-05-31T02:57:59;11.10;99.90
7814;DHT22;3952;48.364;16.022;2023-05-31T03:00:27;11.00;99.90
7814;DHT22;3952;48.364;16.022;2023-05-31T03:02:54;10.90;99.90
7814;DHT22;3952;48.364;16.022;2023-05-31T03:05:21;10.90;99.90
7814;DHT22;3952;48.364;16.022;2023-05-31T03:07:51;10.90;99.90
7814;DHT22;3952;48.364;16.022;2023-05-31T03:10:18;10.90;99.90
7814;DHT22;3952;48.364;16.022;2023-05-31T03:12:45;10.90;99.90
7814;DHT22;3952;48.364;16.022;2023-05-31T03:15:12;10.90;99.90
7814;DHT22;3952;48.364;16.022;2023-05-31T03:17:39;10.80;99.90
7814;DHT22;3952;48.364;16.022;2023-05-31T03:20:08;10.80;99.90
7814;DHT22;3952;48.364;16.022;2023-05-31T03:22:35;10.70;99.90
7814;DHT22;3952;48.364;16.022;2023-05-31T03:25:05;10.60;99.90
7814;DHT22;3952;48.364;16.022;2023-05-31T03:27:32;10.50;99.90
7814;DHT22;3952;48.364;16.022;2023-05-31T03:29:59;10.50;99.90
7814;DHT22;3952;48.364;16.022;2023-05-31T03:32:27;10.50;99.90
7814;DHT22;3952;48.364;16.022;2023-05-31T03:34:54;10.60;99.90
7814;DHT22;3952;48.364;16.022;2023-05-31T03:37:21;10.60;99.90
7814;DHT22;3952;48.364;16.022;2023-05-31T03:39:48;10.60;99.90
7814;DHT22;3952;48.364;16.022;2023-05-31T03:42:18;10.60;99.90
7814;DHT22;3952;48.364;16.022;2023-05-31T03:44:45;10.60;99.90
7814;DHT22;3952;48.364;16.022;2023-05-31T03:47:12;10.70;99.90
7814;DHT22;3952;48.364;16.022;2023-05-31T03:49:39;10.70;99.90
7814;DHT22;3952;48.364;16.022;2023-05-31T03:52:07;10.70;99.90
7814;DHT22;3952;48.364;16.022;2023-05-31T03:54:38;10.70;99.90
7814;DHT22;3952;48.364;16.022;2023-05-31T03:57:06;10.80;99.90
7814;DHT22;3952;48.364;16.022;2023-05-31T03:59:35;10.80;99.90
7814;DHT22;3952;48.364;16.022;2023-05-31T04:02:03;10.80;99.90
7814;DHT22;3952;48.364;16.022;2023-05-31T04:04:30;10.80;99.90
7814;DHT22;3952;48.364;16.022;2023-05-31T04:06:57;10.80;99.90
7814;DHT22;3952;48.364;16.022;2023-05-31T04:09:25;10.90;99.90
7814;DHT22;3952;48.364;16.022;2023-05-31T04:11:52;10.90;99.90
7814;DHT22;3952;48.364;16.022;2023-05-31T04:14:19;11.00;99.90
7814;DHT22;3952;48.364;16.022;2023-05-31T04:16:48;11.00;99.90
7814;DHT22;3952;48.364;16.022;2023-05-31T04:19:15;11.10;99.90
7814;DHT22;3952;48.364;16.022;2023-05-31T04:21:42;11.10;99.90
7814;DHT22;3952;48.364;16.022;2023-05-31T04:24:09;11.20;99.90
7814;DHT22;3952;48.364;16.022;2023-05-31T04:26:36;12.00;99.90
7814;DHT22;3952;48.364;16.022;2023-05-31T04:29:03;11.60;99.90
7814;DHT22;3952;48.364;16.022;2023-05-31T04:31:31;11.80;99.90
7814;DHT22;3952;48.364;16.022;2023-05-31T04:34:03;12.00;99.90
7814;DHT22;3952;48.364;16.022;2023-05-31T04:36:30;12.10;99.90
7814;DHT22;3952;48.364;16.022;2023-05-31T04:39:01;12.10;99.90
7814;DHT22;3952;48.364;16.022;2023-05-31T04:41:34;12.10;99.90
7814;DHT22;3952;48.364;16.022;2023-05-31T04:44:02;12.20;99.90
7814;DHT22;3952;48.364;16.022;2023-05-31T04:46:29;12.20;99.90
7814;DHT22;3952;48.364;16.022;2023-05-31T04:48:57;12.30;99.90
7814;DHT22;3952;48.364;16.022;2023-05-31T04:51:28;12.30;99.90
7814;DHT22;3952;48.364;16.022;2023-05-31T04:53:55;12.30;99.90
7814;DHT22;3952;48.364;16.022;2023-05-31T04:56:22;13.10;99.90
7814;DHT22;3952;48.364;16.022;2023-05-31T04:58:50;12.50;99.90
7814;DHT22;3952;48.364;16.022;2023-05-31T05:01:17;12.50;99.90
7814;DHT22;3952;48.364;16.022;2023-05-31T05:03:45;12.60;99.90
7814;DHT22;3952;48.364;16.022;2023-05-31T05:06:13;12.70;99.90
7814;DHT22;3952;48.364;16.022;2023-05-31T05:08:43;12.70;99.90
7814;DHT22;3952;48.364;16.022;2023-05-31T05:11:10;12.80;99.90
7814;DHT22;3952;48.364;16.022;2023-05-31T05:13:38;12.90;99.90
7814;DHT22;3952;48.364;16.022;2023-05-31T05:16:05;13.00;99.90
7814;DHT22;3952;48.364;16.022;2023-05-31T05:18:33;13.10;99.90
7814;DHT22;3952;48.364;16.022;2023-05-31T05:21:00;13.20;99.90
7814;DHT22;3952;48.364;16.022;2023-05-31T05:23:27;13.20;99.90
7814;DHT22;3952;48.364;16.022;2023-05-31T05:25:56;13.30;99.90
7814;DHT22;3952;48.364;16.022;2023-05-31T05:28:23;13.40;99.90
7814;DHT22;3952;48.364;16.022;2023-05-31T05:30:51;13.50;99.90
7814;DHT22;3952;48.364;16.022;2023-05-31T05:33:19;13.60;99.90
7814;DHT22;3952;48.364;16.022;2023-05-31T05:35:46;13.70;99.90
7814;DHT22;3952;48.364;16.022;2023-05-31T05:38:13;13.80;99.90
7814;DHT22;3952;48.364;16.022;2023-05-31T05:40:40;14.00;99.90
7814;DHT22;3952;48.364;16.022;2023-05-31T05:43:09;14.10;99.90
7814;DHT22;3952;48.364;16.022;2023-05-31T05:45:36;14.20;99.90
7814;DHT22;3952;48.364;16.022;2023-05-31T05:48:04;14.40;99.90
7814;DHT22;3952;48.364;16.022;2023-05-31T05:50:31;14.50;99.90
7814;DHT22;3952;48.364;16.022;2023-05-31T05:52:58;14.50;99.90
7814;DHT22;3952;48.364;16.022;2023-05-31T05:55:25;14.60;99.90
7814;DHT22;3952;48.364;16.022;2023-05-31T05:57:52;14.70;99.90
7814;DHT22;3952;48.364;16.022;2023-05-31T06:00:21;14.80;99.90
7814;DHT22;3952;48.364;16.022;2023-05-31T06:02:50;14.80;99.90
7814;DHT22;3952;48.364;16.022;2023-05-31T06:05:17;14.90;99.90
7814;DHT22;3952;48.364;16.022;2023-05-31T06:07:50;15.00;99.90
7814;DHT22;3952;48.364;16.022;2023-05-31T06:10:18;15.10;99.90
7814;DHT22;3952;48.364;16.022;2023-05-31T06:12:45;15.20;99.90
7814;DHT22;3952;48.364;16.022;2023-05-31T06:15:12;15.30;99.90
7814;DHT22;3952;48.364;16.022;2023-05-31T06:17:41;15.40;99.90
7814;DHT22;3952;48.364;16.022;2023-05-31T06:20:09;15.50;99.90
7814;DHT22;3952;48.364;16.022;2023-05-31T06:22:37;15.60;99.90
7814;DHT22;3952;48.364;16.022;2023-05-31T06:25:04;15.70;99.90
7814;DHT22;3952;48.364;16.022;2023-05-31T06:27:32;15.90;99.90
7814;DHT22;3952;48.364;16.022;2023-05-31T06:29:59;16.00;99.90
7814;DHT22;3952;48.364;16.022;2023-05-31T06:32:26;16.10;99.90
7814;DHT22;3952;48.364;16.022;2023-05-31T06:34:55;16.30;99.90
7814;DHT22;3952;48.364;16.022;2023-05-31T06:37:23;16.50;99.90
7814;DHT22;3952;48.364;16.022;2023-05-31T06:39:50;16.60;99.90
7814;DHT22;3952;48.364;16.022;2023-05-31T06:42:17;16.70;99.90
7814;DHT22;3952;48.364;16.022;2023-05-31T06:44:45;16.80;99.90
7814;DHT22;3952;48.364;16.022;2023-05-31T06:47:12;16.90;99.90
7814;DHT22;3952;48.364;16.022;2023-05-31T06:49:39;17.10;99.90
7814;DHT22;3952;48.364;16.022;2023-05-31T06:52:08;17.20;99.90
7814;DHT22;3952;48.364;16.022;2023-05-31T06:54:36;17.30;99.90
7814;DHT22;3952;48.364;16.022;2023-05-31T06:57:05;17.40;99.90
7814;DHT22;3952;48.364;16.022;2023-05-31T06:59:32;17.50;99.90
7814;DHT22;3952;48.364;16.022;2023-05-31T07:01:59;17.70;99.90
7814;DHT22;3952;48.364;16.022;2023-05-31T07:04:26;17.70;99.90
7814;DHT22;3952;48.364;16.022;2023-05-31T07:06:53;17.80;99.90
7814;DHT22;3952;48.364;16.022;2023-05-31T07:09:23;17.80;99.90
7814;DHT22;3952;48.364;16.022;2023-05-31T07:11:50;18.00;99.90
7814;DHT22;3952;48.364;16.022;2023-05-31T07:14:17;18.10;99.90
7814;DHT22;3952;48.364;16.022;2023-05-31T07:16:44;18.20;99.90
7814;DHT22;3952;48.364;16.022;2023-05-31T07:19:11;18.40;99.90
7814;DHT22;3952;48.364;16.022;2023-05-31T07:21:38;18.50;99.90
7814;DHT22;3952;48.364;16.022;2023-05-31T07:24:06;18.60;99.90
7814;DHT22;3952;48.364;16.022;2023-05-31T07:26:37;18.70;99.90
7814;DHT22;3952;48.364;16.022;2023-05-31T07:29:04;18.80;99.90
7814;DHT22;3952;48.364;16.022;2023-05-31T07:31:31;18.90;99.90
7814;DHT22;3952;48.364;16.022;2023-05-31T07:33:58;18.90;99.90
7814;DHT22;3952;48.364;16.022;2023-05-31T07:36:25;19.00;99.90
7814;DHT22;3952;48.364;16.022;2023-05-31T07:38:53;19.10;99.90
7814;DHT22;3952;48.364;16.022;2023-05-31T07:41:20;19.20;99.90
7814;DHT22;3952;48.364;16.022;2023-05-31T07:43:49;19.30;99.90
7814;DHT22;3952;48.364;16.022;2023-05-31T07:46:16;19.40;99.90
7814;DHT22;3952;48.364;16.022;2023-05-31T07:48:43;19.50;99.90
7814;DHT22;3952;48.364;16.022;2023-05-31T07:51:10;19.60;99.90
7814;DHT22;3952;48.364;16.022;2023-05-31T07:53:38;19.80;99.90
7814;DHT22;3952;48.364;16.022;2023-05-31T07:56:06;19.90;99.90
7814;DHT22;3952;48.364;16.022;2023-05-31T07:58:33;19.90;99.90
7814;DHT22;3952;48.364;16.022;2023-05-31T08:01:02;20.00;99.90
7814;DHT22;3952;48.364;16.022;2023-05-31T08:03:29;20.10;99.90
7814;DHT22;3952;48.364;16.022;2023-05-31T08:05:57;20.20;99.90
7814;DHT22;3952;48.364;16.022;2023-05-31T08:08:25;20.20;99.90
7814;DHT22;3952;48.364;16.022;2023-05-31T08:10:56;20.40;99.90
7814;DHT22;3952;48.364;16.022;2023-05-31T08:13:23;20.50;99.90
7814;DHT22;3952;48.364;16.022;2023-05-31T08:15:50;20.60;99.90
7814;DHT22;3952;48.364;16.022;2023-05-31T08:18:19;20.70;99.90
7814;DHT22;3952;48.364;16.022;2023-05-31T08:20:46;20.80;99.90
7814;DHT22;3952;48.364;16.022;2023-05-31T08:23:17;20.90;99.90
7814;DHT22;3952;48.364;16.022;2023-05-31T08:25:45;21.10;99.90
7814;DHT22;3952;48.364;16.022;2023-05-31T08:28:12;21.20;99.90
7814;DHT22;3952;48.364;16.022;2023-05-31T08:30:39;21.30;99.90
7814;DHT22;3952;48.364;16.022;2023-05-31T08:33:07;21.30;99.90
7814;DHT22;3952;48.364;16.022;2023-05-31T08:35:35;21.40;99.90
7814;DHT22;3952;48.364;16.022;2023-05-31T08:38:02;21.50;99.90
7814;DHT22;3952;48.364;16.022;2023-05-31T08:40:29;21.60;99.90
7814;DHT22;3952;48.364;16.022;2023-05-31T08:43:02;21.70;99.90
7814;DHT22;3952;48.364;16.022;2023-05-31T08:45:30;21.90;99.90
7814;DHT22;3952;48.364;16.022;2023-05-31T08:48:08;22.00;99.90
7814;DHT22;3952;48.364;16.022;2023-05-31T08:50:38;22.20;99.90
7814;DHT22;3952;48.364;16.022;2023-05-31T08:53:08;22.30;99.90
7814;DHT22;3952;48.364;16.022;2023-05-31T08:55:36;22.40;99.90
7814;DHT22;3952;48.364;16.022;2023-05-31T08:58:05;22.50;99.90
7814;DHT22;3952;48.364;16.022;2023-05-31T09:00:33;22.60;99.90
7814;DHT22;3952;48.364;16.022;2023-05-31T09:03:04;22.60;99.90
7814;DHT22;3952;48.364;16.022;2023-05-31T09:05:32;22.70;99.90
7814;DHT22;3952;48.364;16.022;2023-05-31T09:08:01;22.80;99.90
7814;DHT22;3952;48.364;16.022;2023-05-31T09:10:29;22.90;99.90
7814;DHT22;3952;48.364;16.022;2023-05-31T09:12:56;23.00;99.90
7814;DHT22;3952;48.364;16.022;2023-05-31T09:15:25;23.10;99.90
7814;DHT22;3952;48.364;16.022;2023-05-31T09:17:54;23.30;99.90
7814;DHT22;3952;48.364;16.022;2023-05-31T09:20:31;23.40;99.90
7814;DHT22;3952;48.364;16.022;2023-05-31T09:23:03;23.50;99.90
7814;DHT22;3952;48.364;16.022;2023-05-31T09:25:43;23.50;99.90
7814;DHT22;3952;48.364;16.022;2023-05-31T09:28:10;23.60;99.60
7814;DHT22;3952;48.364;16.022;2023-05-31T09:30:37;23.70;99.90
7814;DHT22;3952;48.364;16.022;2023-05-31T09:33:05;23.80;99.90
7814;DHT22;3952;48.364;16.022;2023-05-31T09:35:32;23.90;99.90
7814;DHT22;3952;48.364;16.022;2023-05-31T09:38:05;24.10;99.70
7814;DHT22;3952;48.364;16.022;2023-05-31T09:40:33;24.10;99.50
7814;DHT22;3952;48.364;16.022;2023-05-31T09:43:01;24.10;99.10
7814;DHT22;3952;48.364;16.022;2023-05-31T09:45:28;24.10;98.40
7814;DHT22;3952;48.364;16.022;2023-05-31T09:47:55;24.10;98.90
7814;DHT22;3952;48.364;16.022;2023-05-31T09:50:23;24.10;98.90
7814;DHT22;3952;48.364;16.022;2023-05-31T09:52:56;24.20;97.50
7814;DHT22;3952;48.364;16.022;2023-05-31T09:55:38;24.10;98.00
7814;DHT22;3952;48.364;16.022;2023-05-31T09:58:07;24.20;96.70
7814;DHT22;3952;48.364;16.022;2023-05-31T10:00:34;24.20;96.40
7814;DHT22;3952;48.364;16.022;2023-05-31T10:03:01;24.20;96.20
7814;DHT22;3952;48.364;16.022;2023-05-31T10:05:29;24.30;97.30
7814;DHT22;3952;48.364;16.022;2023-05-31T10:07:57;24.30;96.20
7814;DHT22;3952;48.364;16.022;2023-05-31T10:10:26;24.40;97.30
7814;DHT22;3952;48.364;16.022;2023-05-31T10:12:57;24.50;97.00
7814;DHT22;3952;48.364;16.022;2023-05-31T10:15:26;24.60;96.30
7814;DHT22;3952;48.364;16.022;2023-05-31T10:17:58;24.60;95.60
7814;DHT22;3952;48.364;16.022;2023-05-31T10:20:30;24.80;96.40
7814;DHT22;3952;48.364;16.022;2023-05-31T10:23:01;24.80;95.10
7814;DHT22;3952;48.364;16.022;2023-05-31T10:25:41;24.90;95.70
7814;DHT22;3952;48.364;16.022;2023-05-31T10:28:14;24.90;95.00
7814;DHT22;3952;48.364;16.022;2023-05-31T10:30:46;25.10;96.10
7814;DHT22;3952;48.364;16.022;2023-05-31T10:33:17;25.20;95.10
7814;DHT22;3952;48.364;16.022;2023-05-31T10:35:46;25.20;93.90
7814;DHT22;3952;48.364;16.022;2023-05-31T10:38:14;25.20;93.90
7814;DHT22;3952;48.364;16.022;2023-05-31T10:40:48;25.20;95.20
7814;DHT22;3952;48.364;16.022;2023-05-31T10:43:22;25.40;94.00
7814;DHT22;3952;48.364;16.022;2023-05-31T10:45:52;25.50;95.10
7814;DHT22;3952;48.364;16.022;2023-05-31T10:48:28;25.50;93.30
7814;DHT22;3952;48.364;16.022;2023-05-31T10:50:59;25.50;92.00
7814;DHT22;3952;48.364;16.022;2023-05-31T10:53:29;25.30;92.30
7814;DHT22;3952;48.364;16.022;2023-05-31T10:56:03;25.10;91.40
7814;DHT22;3952;48.364;16.022;2023-05-31T10:58:35;25.00;91.50
7814;DHT22;3952;48.364;16.022;2023-05-31T11:01:06;24.90;92.70
7814;DHT22;3952;48.364;16.022;2023-05-31T11:03:35;25.00;91.30
7814;DHT22;3952;48.364;16.022;2023-05-31T11:06:06;25.00;90.70
7814;DHT22;3952;48.364;16.022;2023-05-31T11:08:34;25.10;92.30
7814;DHT22;3952;48.364;16.022;2023-05-31T11:11:28;25.30;91.00
7814;DHT22;3952;48.364;16.022;2023-05-31T11:13:57;25.40;90.90
7814;DHT22;3952;48.364;16.022;2023-05-31T11:16:25;25.50;91.30
7814;DHT22;3952;48.364;16.022;2023-05-31T11:19:02;25.60;87.30
7814;DHT22;3952;48.364;16.022;2023-05-31T11:21:46;25.40;87.90
7814;DHT22;3952;48.364;16.022;2023-05-31T11:24:30;25.40;90.00
7814;DHT22;3952;48.364;16.022;2023-05-31T11:27:01;25.40;88.50
7814;DHT22;3952;48.364;16.022;2023-05-31T11:29:56;25.50;89.00
7814;DHT22;3952;48.364;16.022;2023-05-31T11:32:54;25.60;89.50
7814;DHT22;3952;48.364;16.022;2023-05-31T11:35:23;25.70;87.60
7814;DHT22;3952;48.364;16.022;2023-05-31T11:37:59;25.80;87.50
7814;DHT22;3952;48.364;16.022;2023-05-31T11:40:28;25.80;88.00
7814;DHT22;3952;48.364;16.022;2023-05-31T11:43:03;25.90;86.20
7814;DHT22;3952;48.364;16.022;2023-05-31T11:45:33;25.90;87.00
7814;DHT22;3952;48.364;16.022;2023-05-31T11:48:19;25.90;85.70
7814;DHT22;3952;48.364;16.022;2023-05-31T11:50:51;25.90;85.80
7814;DHT22;3952;48.364;16.022;2023-05-31T11:53:20;25.90;86.10
7814;DHT22;3952;48.364;16.022;2023-05-31T11:55:48;26.00;85.00
7814;DHT22;3952;48.364;16.022;2023-05-31T11:58:19;25.90;84.30
7814;DHT22;3952;48.364;16.022;2023-05-31T12:00:47;25.70;85.40
7814;DHT22;3952;48.364;16.022;2023-05-31T12:03:14;25.60;84.60
7814;DHT22;3952;48.364;16.022;2023-05-31T12:05:44;25.60;84.60
7814;DHT22;3952;48.364;16.022;2023-05-31T12:08:16;25.60;85.20
7814;DHT22;3952;48.364;16.022;2023-05-31T12:10:44;25.70;84.80
7814;DHT22;3952;48.364;16.022;2023-05-31T12:13:17;25.70;81.00
7814;DHT22;3952;48.364;16.022;2023-05-31T12:15:51;25.60;83.40
7814;DHT22;3952;48.364;16.022;2023-05-31T12:18:22;25.70;85.40
7814;DHT22;3952;48.364;16.022;2023-05-31T12:20:49;25.70;80.00
7814;DHT22;3952;48.364;16.022;2023-05-31T12:23:16;25.80;83.10
7814;DHT22;3952;48.364;16.022;2023-05-31T12:25:46;25.90;83.30
7814;DHT22;3952;48.364;16.022;2023-05-31T12:28:17;25.90;81.70
7814;DHT22;3952;48.364;16.022;2023-05-31T12:30:45;25.70;80.30
7814;DHT22;3952;48.364;16.022;2023-05-31T12:33:12;25.40;80.70
7814;DHT22;3952;48.364;16.022;2023-05-31T12:35:41;25.20;81.90
7814;DHT22;3952;48.364;16.022;2023-05-31T12:38:08;25.20;84.40
7814;DHT22;3952;48.364;16.022;2023-05-31T12:40:42;25.20;83.40
7814;DHT22;3952;48.364;16.022;2023-05-31T12:43:11;25.30;82.40
7814;DHT22;3952;48.364;16.022;2023-05-31T12:45:41;25.40;84.80
7814;DHT22;3952;48.364;16.022;2023-05-31T12:48:09;25.40;83.30
7814;DHT22;3952;48.364;16.022;2023-05-31T12:50:43;25.40;82.90
7814;DHT22;3952;48.364;16.022;2023-05-31T12:53:11;25.40;82.50
7814;DHT22;3952;48.364;16.022;2023-05-31T12:55:38;25.20;80.60
7814;DHT22;3952;48.364;16.022;2023-05-31T12:58:05;25.10;84.10
7814;DHT22;3952;48.364;16.022;2023-05-31T13:00:33;25.20;84.00
7814;DHT22;3952;48.364;16.022;2023-05-31T13:03:01;25.40;84.80
7814;DHT22;3952;48.364;16.022;2023-05-31T13:05:29;25.40;85.10
7814;DHT22;3952;48.364;16.022;2023-05-31T13:07:56;25.40;81.30
7814;DHT22;3952;48.364;16.022;2023-05-31T13:10:23;25.40;81.30
7814;DHT22;3952;48.364;16.022;2023-05-31T13:12:51;25.40;82.10
7814;DHT22;3952;48.364;16.022;2023-05-31T13:15:18;25.50;81.90
7814;DHT22;3952;48.364;16.022;2023-05-31T13:17:45;25.50;80.20
7814;DHT22;3952;48.364;16.022;2023-05-31T13:20:14;25.50;81.70
7814;DHT22;3952;48.364;16.022;2023-05-31T13:22:41;25.60;86.10
7814;DHT22;3952;48.364;16.022;2023-05-31T13:25:09;25.60;81.30
7814;DHT22;3952;48.364;16.022;2023-05-31T13:27:37;25.70;81.20
7814;DHT22;3952;48.364;16.022;2023-05-31T13:30:07;25.60;80.80
7814;DHT22;3952;48.364;16.022;2023-05-31T13:32:35;25.60;80.70
7814;DHT22;3952;48.364;16.022;2023-05-31T13:35:02;25.50;78.90
7814;DHT22;3952;48.364;16.022;2023-05-31T13:37:32;25.50;81.40
7814;DHT22;3952;48.364;16.022;2023-05-31T13:39:59;25.50;81.10
7814;DHT22;3952;48.364;16.022;2023-05-31T13:42:28;25.40;80.70
7814;DHT22;3952;48.364;16.022;2023-05-31T13:44:55;25.30;78.90
7814;DHT22;3952;48.364;16.022;2023-05-31T13:47:22;25.30;78.90
7814;DHT22;3952;48.364;16.022;2023-05-31T13:49:49;25.40;80.70
7814;DHT22;3952;48.364;16.022;2023-05-31T13:52:16;25.40;78.70
7814;DHT22;3952;48.364;16.022;2023-05-31T13:54:45;25.30;79.30
7814;DHT22;3952;48.364;16.022;2023-05-31T13:57:12;25.30;77.50
7814;DHT22;3952;48.364;16.022;2023-05-31T13:59:39;25.30;80.30
7814;DHT22;3952;48.364;16.022;2023-05-31T14:02:06;25.30;78.70
7814;DHT22;3952;48.364;16.022;2023-05-31T14:04:34;25.40;79.30
7814;DHT22;3952;48.364;16.022;2023-05-31T14:07:01;25.40;78.90
7814;DHT22;3952;48.364;16.022;2023-05-31T14:09:29;25.40;78.70
7814;DHT22;3952;48.364;16.022;2023-05-31T14:11:57;25.40;80.50
7814;DHT22;3952;48.364;16.022;2023-05-31T14:14:25;25.40;78.10
7814;DHT22;3952;48.364;16.022;2023-05-31T14:16:53;25.40;79.20
7814;DHT22;3952;48.364;16.022;2023-05-31T14:19:20;25.30;78.90
7814;DHT22;3952;48.364;16.022;2023-05-31T14:21:47;25.40;77.10
7814;DHT22;3952;48.364;16.022;2023-05-31T14:24:14;25.30;77.60
7814;DHT22;3952;48.364;16.022;2023-05-31T14:26:42;25.30;77.80
7814;DHT22;3952;48.364;16.022;2023-05-31T14:29:10;25.20;78.30
7814;DHT22;3952;48.364;16.022;2023-05-31T14:31:37;25.30;78.20
7814;DHT22;3952;48.364;16.022;2023-05-31T14:34:05;25.30;77.90
7814;DHT22;3952;48.364;16.022;2023-05-31T14:36:32;25.30;77.50
7814;DHT22;3952;48.364;16.022;2023-05-31T14:38:59;25.30;77.10
7814;DHT22;3952;48.364;16.022;2023-05-31T14:41:26;25.30;77.90
7814;DHT22;3952;48.364;16.022;2023-05-31T14:43:53;25.20;78.70
7814;DHT22;3952;48.364;16.022;2023-05-31T14:46:22;25.20;78.50
7814;DHT22;3952;48.364;16.022;2023-05-31T14:48:49;25.20;76.60
7814;DHT22;3952;48.364;16.022;2023-05-31T14:51:16;25.20;76.20
7814;DHT22;3952;48.364;16.022;2023-05-31T14:53:44;25.10;77.30
7814;DHT22;3952;48.364;16.022;2023-05-31T14:56:11;25.00;76.40
7814;DHT22;3952;48.364;16.022;2023-05-31T14:58:38;24.90;76.40
7814;DHT22;3952;48.364;16.022;2023-05-31T15:01:05;25.00;76.00
7814;DHT22;3952;48.364;16.022;2023-05-31T15:03:34;25.00;77.50
7814;DHT22;3952;48.364;16.022;2023-05-31T15:06:01;25.00;75.60
7814;DHT22;3952;48.364;16.022;2023-05-31T15:08:29;25.00;76.10
7814;DHT22;3952;48.364;16.022;2023-05-31T15:10:56;25.00;77.10
7814;DHT22;3952;48.364;16.022;2023-05-31T15:13:23;25.00;76.40
7814;DHT22;3952;48.364;16.022;2023-05-31T15:15:50;25.00;75.90
7814;DHT22;3952;48.364;16.022;2023-05-31T15:18:17;24.90;76.50
7814;DHT22;3952;48.364;16.022;2023-05-31T15:20:46;25.00;77.60
7814;DHT22;3952;48.364;16.022;2023-05-31T15:23:13;25.00;76.40
7814;DHT22;3952;48.364;16.022;2023-05-31T15:25:40;25.00;76.10
7814;DHT22;3952;48.364;16.022;2023-05-31T15:28:08;25.00;75.10
7814;DHT22;3952;48.364;16.022;2023-05-31T15:30:35;25.00;74.40
7814;DHT22;3952;48.364;16.022;2023-05-31T15:33:02;24.90;74.10
7814;DHT22;3952;48.364;16.022;2023-05-31T15:35:29;24.90;75.30
7814;DHT22;3952;48.364;16.022;2023-05-31T15:38:01;24.90;74.90
7814;DHT22;3952;48.364;16.022;2023-05-31T15:40:28;24.80;75.50
7814;DHT22;3952;48.364;16.022;2023-05-31T15:42:55;24.80;74.50
7814;DHT22;3952;48.364;16.022;2023-05-31T15:45:22;24.80;74.50
7814;DHT22;3952;48.364;16.022;2023-05-31T15:47:49;24.80;73.60
7814;DHT22;3952;48.364;16.022;2023-05-31T15:50:17;24.80;74.10
7814;DHT22;3952;48.364;16.022;2023-05-31T15:52:44;24.80;74.60
7814;DHT22;3952;48.364;16.022;2023-05-31T15:55:13;24.80;75.10